createdAt,value
2017-03-19T00:01:06.046Z,96.26
2017-03-19T00:02:17.487Z,96.79
2017-03-19T00:03:28.582Z,96.74
2017-03-19T00:04:39.619Z,96.55
2017-03-19T00:05:50.652Z,96.74
2017-03-19T00:07:01.679Z,97.69
2017-03-19T00:08:12.707Z,97.88
2017-03-19T00:09:24.137Z,99.22
2017-03-19T00:10:35.166Z,99.99
2017-03-19T00:11:46.197Z,99.99
2017-03-19T00:12:57.224Z,99.99
2017-03-19T00:14:08.516Z,99.99
2017-03-19T00:15:19.748Z,99.99
2017-03-19T00:16:30.769Z,99.99
2017-03-19T00:17:42.003Z,99.99
2017-03-19T00:18:53.033Z,99.99
2017-03-19T00:20:04.064Z,99.99
2017-03-19T00:21:15.098Z,99.99
2017-03-19T00:22:26.328Z,99.99
2017-03-19T00:23:37.363Z,99.99
2017-03-19T00:24:48.648Z,99.99
2017-03-19T00:25:59.675Z,99.99
2017-03-19T00:27:10.695Z,99.99
2017-03-19T00:28:21.928Z,99.99
2017-03-19T00:29:33.165Z,99.99
2017-03-19T00:30:44.192Z,99.99
2017-03-19T00:31:55.421Z,99.99
2017-03-19T00:33:06.481Z,99.99
2017-03-19T00:34:17.506Z,99.99
2017-03-19T00:35:28.543Z,99.99
2017-03-19T00:36:39.563Z,99.99
2017-03-19T00:37:50.617Z,99.99
2017-03-19T00:39:01.674Z,99.99
2017-03-19T00:40:12.705Z,99.99
2017-03-19T00:41:23.735Z,99.99
2017-03-19T00:42:34.761Z,99.69
2017-03-19T00:43:45.791Z,99.99
2017-03-19T00:44:56.834Z,97.88
2017-03-19T00:46:07.941Z,98.93
2017-03-19T00:47:18.977Z,98.74
2017-03-19T00:48:30.015Z,99.99
2017-03-19T00:49:41.055Z,99.99
2017-03-19T00:50:52.083Z,99.99
2017-03-19T00:52:03.109Z,99.99
2017-03-19T00:53:14.169Z,96.84
2017-03-19T00:54:25.205Z,94.93
2017-03-19T00:55:36.441Z,93.13
2017-03-19T00:56:47.517Z,93.6
2017-03-19T00:57:58.555Z,92.56
2017-03-19T00:59:09.597Z,92.75
2017-03-19T01:00:20.637Z,93.79
2017-03-19T01:01:31.661Z,93.41
2017-03-19T01:02:42.941Z,93.89
2017-03-19T01:03:53.986Z,92.27
2017-03-19T01:05:05.021Z,91.8
2017-03-19T01:06:16.051Z,91.51
2017-03-19T01:07:27.329Z,91.89
2017-03-19T01:08:38.391Z,93.13
2017-03-19T01:09:49.424Z,94.56
2017-03-19T01:11:00.458Z,95.79
2017-03-19T01:12:11.481Z,98.55
2017-03-19T01:13:22.712Z,94.65
2017-03-19T01:14:33.739Z,96.17
2017-03-19T01:15:44.771Z,94.27
2017-03-19T01:16:55.796Z,89.14
2017-03-19T01:18:06.881Z,90.56
2017-03-19T01:19:17.925Z,88.37
2017-03-19T01:20:28.959Z,88.09
2017-03-19T01:21:39.997Z,87.13
2017-03-19T01:22:51.028Z,85.99
2017-03-19T01:24:02.064Z,85.52
2017-03-19T01:25:13.118Z,82.19
2017-03-19T01:26:24.140Z,84.09
2017-03-19T01:27:35.164Z,81.81
2017-03-19T01:28:46.399Z,81.81
2017-03-19T01:29:57.681Z,82.76
2017-03-19T01:31:08.711Z,79.91
2017-03-19T01:32:19.738Z,77.91
2017-03-19T01:33:30.803Z,79.11
2017-03-19T01:34:41.834Z,78.16
2017-03-19T01:35:53.053Z,77.49
2017-03-19T01:37:04.274Z,80.44
2017-03-19T01:38:15.303Z,76.25
2017-03-19T01:39:26.581Z,78.34
2017-03-19T01:40:37.610Z,76.35
2017-03-19T01:41:48.630Z,75.3
2017-03-19T01:42:59.864Z,80.63
2017-03-19T01:44:10.897Z,88.61
2017-03-19T01:45:21.935Z,82.81
2017-03-19T01:46:32.963Z,85.47
2017-03-19T01:47:43.993Z,85.38
2017-03-19T01:48:55.046Z,82.15
2017-03-19T01:50:06.127Z,82.19
2017-03-19T01:51:17.553Z,79.58
2017-03-19T01:52:28.583Z,80
2017-03-19T01:53:39.615Z,78.57
2017-03-19T01:54:50.876Z,77.05
2017-03-19T01:56:01.911Z,75.15
2017-03-19T01:57:12.939Z,73.82
2017-03-19T01:58:23.967Z,73.72
2017-03-19T01:59:35.402Z,73.97
2017-03-19T02:00:46.475Z,73.21
2017-03-19T02:01:57.517Z,73.88
2017-03-19T02:03:08.545Z,72.45
2017-03-19T02:04:19.581Z,71.02
2017-03-19T02:05:30.606Z,72.07
2017-03-19T02:06:41.895Z,72.26
2017-03-19T02:07:53.128Z,71.12
2017-03-19T02:09:04.360Z,71.02
2017-03-19T02:10:15.388Z,71.88
2017-03-19T02:11:26.407Z,70.54
2017-03-19T02:12:37.436Z,69.88
2017-03-19T02:13:48.475Z,69.21
2017-03-19T02:14:59.543Z,69.31
2017-03-19T02:16:10.614Z,70.45
2017-03-19T02:17:21.649Z,71.02
2017-03-19T02:18:32.735Z,69.12
2017-03-19T02:19:43.770Z,71.02
2017-03-19T02:20:54.793Z,70.36
2017-03-19T02:22:06.019Z,70.54
2017-03-19T02:23:17.045Z,68.36
2017-03-19T02:24:28.075Z,69.69
2017-03-19T02:25:39.503Z,68.07
2017-03-19T02:26:50.525Z,68.36
2017-03-19T02:28:01.598Z,67.6
2017-03-19T02:29:12.626Z,67.41
2017-03-19T02:30:23.662Z,67.98
2017-03-19T02:31:34.690Z,66.55
2017-03-19T02:32:45.718Z,66.17
2017-03-19T02:33:56.739Z,66.94
2017-03-19T02:35:07.964Z,66.36
2017-03-19T02:36:18.986Z,65.32
2017-03-19T02:37:30.018Z,65.41
2017-03-19T02:38:41.097Z,63.6
2017-03-19T02:39:52.327Z,64.37
2017-03-19T02:41:03.558Z,63.7
2017-03-19T02:42:14.779Z,65.22
2017-03-19T02:43:26.011Z,66.94
2017-03-19T02:44:37.052Z,65.03
2017-03-19T02:45:48.083Z,67.03
2017-03-19T02:46:59.318Z,64.94
2017-03-19T02:48:10.342Z,64.46
2017-03-19T02:49:21.616Z,63.51
2017-03-19T02:50:32.686Z,63.7
2017-03-19T02:51:43.711Z,62.18
2017-03-19T02:52:54.943Z,63.32
2017-03-19T02:54:05.973Z,63.79
2017-03-19T02:55:17.252Z,62.46
2017-03-19T02:56:28.291Z,62.56
2017-03-19T02:57:39.524Z,61.9
2017-03-19T02:58:50.759Z,60.66
2017-03-19T03:00:02.002Z,61.71
2017-03-19T03:01:13.024Z,61.61
2017-03-19T03:02:24.044Z,60.47
2017-03-19T03:03:35.273Z,64.84
2017-03-19T03:04:46.303Z,62.08
2017-03-19T03:05:57.325Z,61.8
2017-03-19T03:07:08.606Z,64.08
2017-03-19T03:08:19.633Z,63.23
2017-03-19T03:09:30.865Z,62.37
2017-03-19T03:10:41.891Z,61.52
2017-03-19T03:11:52.918Z,62.08
2017-03-19T03:13:03.938Z,62.08
2017-03-19T03:14:15.172Z,61.42
2017-03-19T03:15:26.196Z,61.99
2017-03-19T03:16:37.472Z,59.99
2017-03-19T03:17:48.536Z,60.66
2017-03-19T03:18:59.581Z,62.27
2017-03-19T03:20:10.612Z,59.99
2017-03-19T03:21:21.852Z,60.66
2017-03-19T03:22:32.879Z,63.32
2017-03-19T03:23:44.315Z,60.66
2017-03-19T03:24:55.340Z,58.18
2017-03-19T03:26:06.561Z,58.57
2017-03-19T03:27:17.828Z,59.05
2017-03-19T03:28:29.059Z,56.57
2017-03-19T03:29:40.102Z,57.52
2017-03-19T03:30:51.133Z,56.19
2017-03-19T03:32:02.162Z,55.52
2017-03-19T03:33:13.192Z,54.57
2017-03-19T03:34:24.432Z,54.96
2017-03-19T03:35:35.462Z,55.24
2017-03-19T03:36:46.479Z,55.33
2017-03-19T03:37:57.559Z,54.67
2017-03-19T03:39:08.830Z,54
2017-03-19T03:40:20.059Z,54.22
2017-03-19T03:41:31.082Z,56.51
2017-03-19T03:42:42.112Z,54.69
2017-03-19T03:43:53.187Z,53.75
2017-03-19T03:45:04.214Z,53.75
2017-03-19T03:46:15.232Z,53.84
2017-03-19T03:47:26.255Z,53.75
2017-03-19T03:48:37.278Z,52.32
2017-03-19T03:49:48.545Z,52.89
2017-03-19T03:50:59.774Z,55.27
2017-03-19T03:52:10.797Z,51.46
2017-03-19T03:53:21.824Z,52.22
2017-03-19T03:54:32.857Z,53.65
2017-03-19T03:55:44.174Z,51.93
2017-03-19T03:56:55.195Z,52.41
2017-03-19T03:58:06.210Z,52.98
2017-03-19T03:59:17.237Z,53.65
2017-03-19T04:00:28.261Z,52.61
2017-03-19T04:01:39.293Z,52.98
2017-03-19T04:02:50.521Z,53.27
2017-03-19T04:04:01.557Z,51.65
2017-03-19T04:05:13.037Z,50.79
2017-03-19T04:06:24.072Z,51.08
2017-03-19T04:07:35.104Z,50.42
2017-03-19T04:08:46.348Z,50.04
2017-03-19T04:09:57.380Z,52.03
2017-03-19T04:11:08.413Z,50.51
2017-03-19T04:12:19.845Z,50.42
2017-03-19T04:13:30.882Z,49.75
2017-03-19T04:14:41.930Z,49.65
2017-03-19T04:15:53.244Z,49.37
2017-03-19T04:17:04.479Z,49.08
2017-03-19T04:18:15.711Z,49.37
2017-03-19T04:19:26.743Z,48.23
2017-03-19T04:20:37.979Z,48.23
2017-03-19T04:21:49.008Z,48.68
2017-03-19T04:23:00.244Z,49.75
2017-03-19T04:24:11.280Z,49.85
2017-03-19T04:25:22.319Z,49.85
2017-03-19T04:26:33.396Z,48.42
2017-03-19T04:27:44.432Z,49.94
2017-03-19T04:28:55.667Z,48.9
2017-03-19T04:30:06.892Z,49.08
2017-03-19T04:31:17.923Z,48.32
2017-03-19T04:32:28.954Z,48.8
2017-03-19T04:33:40.020Z,47.37
2017-03-19T04:34:51.060Z,47.37
2017-03-19T04:36:02.096Z,47.37
2017-03-19T04:37:13.321Z,48.42
2017-03-19T04:38:24.600Z,47.28
2017-03-19T04:39:35.645Z,46.61
2017-03-19T04:40:46.706Z,47.37
2017-03-19T04:41:57.731Z,48.23
2017-03-19T04:43:08.955Z,49.08
2017-03-19T04:44:19.981Z,49.85
2017-03-19T04:45:31.005Z,50.13
2017-03-19T04:46:42.033Z,48.71
2017-03-19T04:47:53.564Z,49.46
2017-03-19T04:49:04.601Z,48.71
2017-03-19T04:50:15.824Z,48.03
2017-03-19T04:51:27.059Z,47.85
2017-03-19T04:52:38.088Z,46.8
2017-03-19T04:53:49.123Z,47.75
2017-03-19T04:55:00.157Z,48.71
2017-03-19T04:56:11.186Z,47.18
2017-03-19T04:57:22.222Z,48.03
2017-03-19T04:58:33.313Z,48.99
2017-03-19T04:59:44.344Z,48.42
2017-03-19T05:00:55.371Z,48.23
2017-03-19T05:02:06.392Z,48.23
2017-03-19T05:03:17.820Z,46.7
2017-03-19T05:04:28.856Z,46.33
2017-03-19T05:05:40.087Z,47.28
2017-03-19T05:06:51.108Z,46.23
2017-03-19T05:08:02.138Z,46.51
2017-03-19T05:09:13.219Z,46.7
2017-03-19T05:10:24.253Z,47.37
2017-03-19T05:11:35.266Z,46.61
2017-03-19T05:12:46.287Z,47.37
2017-03-19T05:13:57.304Z,49.18
2017-03-19T05:15:08.533Z,53.65
2017-03-19T05:16:19.565Z,52.98
2017-03-19T05:17:30.800Z,48.51
2017-03-19T05:18:41.833Z,53.36
2017-03-19T05:19:52.863Z,49.85
2017-03-19T05:21:03.894Z,51.56
2017-03-19T05:22:14.916Z,47.94
2017-03-19T05:23:26.144Z,49.08
2017-03-19T05:24:37.181Z,49.49
2017-03-19T05:25:48.208Z,51.56
2017-03-19T05:26:59.299Z,56.05
2017-03-19T05:28:10.323Z,56.7
2017-03-19T05:29:21.359Z,51.46
2017-03-19T05:30:32.401Z,53.77
2017-03-19T05:31:43.615Z,52.15
2017-03-19T05:32:54.643Z,47.68
2017-03-19T05:34:05.674Z,53.67
2017-03-19T05:35:16.905Z,53.3
2017-03-19T05:36:27.988Z,58.44
2017-03-19T05:37:39.010Z,55.49
2017-03-19T05:38:50.045Z,60.82
2017-03-19T05:40:01.083Z,58.72
2017-03-19T05:41:12.309Z,58.53
2017-03-19T05:42:23.344Z,56.15
2017-03-19T05:43:34.587Z,56.44
2017-03-19T05:44:45.819Z,51.39
2017-03-19T05:45:56.847Z,56.92
2017-03-19T05:47:08.123Z,53.77
2017-03-19T05:48:19.161Z,56.15
2017-03-19T05:49:30.209Z,58.72
2017-03-19T05:50:41.236Z,57.96
2017-03-19T05:51:52.261Z,59.86
2017-03-19T05:53:03.293Z,60.82
2017-03-19T05:54:14.330Z,65.58
2017-03-19T05:55:25.594Z,60.53
2017-03-19T05:56:36.616Z,57.1
2017-03-19T05:57:47.695Z,62.34
2017-03-19T05:58:58.728Z,62.05
2017-03-19T06:00:09.755Z,62.43
2017-03-19T06:01:20.784Z,58.53
2017-03-19T06:02:31.816Z,53.58
2017-03-19T06:03:42.850Z,58.81
2017-03-19T06:04:54.095Z,58.62
2017-03-19T06:06:05.124Z,59.8
2017-03-19T06:07:16.147Z,65.13
2017-03-19T06:08:27.178Z,51.87
2017-03-19T06:09:38.207Z,57.42
2017-03-19T06:10:49.238Z,61.9
2017-03-19T06:12:00.261Z,60.37
2017-03-19T06:13:11.286Z,63.23
2017-03-19T06:14:22.598Z,60.85
2017-03-19T06:15:33.661Z,53.42
2017-03-19T06:16:44.699Z,50.75
2017-03-19T06:17:55.734Z,59.03
2017-03-19T06:19:06.785Z,61.42
2017-03-19T06:20:18.018Z,63.23
2017-03-19T06:21:29.046Z,58.56
2017-03-19T06:22:40.070Z,62.75
2017-03-19T06:23:51.104Z,63.32
2017-03-19T06:25:02.381Z,62.56
2017-03-19T06:26:13.414Z,56.75
2017-03-19T06:27:24.436Z,53.13
2017-03-19T06:28:35.474Z,58.47
2017-03-19T06:29:46.714Z,53.42
2017-03-19T06:30:57.740Z,58.94
2017-03-19T06:32:08.766Z,59.89
2017-03-19T06:33:19.787Z,63.51
2017-03-19T06:34:30.832Z,57.32
2017-03-19T06:35:41.918Z,58.28
2017-03-19T06:36:52.944Z,58.75
2017-03-19T06:38:04.169Z,57.51
2017-03-19T06:39:15.188Z,56.56
2017-03-19T06:40:26.410Z,52.47
2017-03-19T06:41:37.447Z,52.47
2017-03-19T06:42:48.479Z,56.85
2017-03-19T06:43:59.706Z,56.18
2017-03-19T06:45:10.942Z,56.09
2017-03-19T06:46:21.957Z,53.8
2017-03-19T06:47:33.190Z,61.8
2017-03-19T06:48:44.215Z,57.42
2017-03-19T06:49:55.237Z,60.18
2017-03-19T06:51:06.267Z,63.23
2017-03-19T06:52:17.290Z,61.7
2017-03-19T06:53:28.340Z,56.75
2017-03-19T06:54:39.387Z,58.18
2017-03-19T06:55:50.619Z,53.04
2017-03-19T06:57:01.692Z,61.73
2017-03-19T06:58:12.931Z,57.13
2017-03-19T06:59:24.160Z,54.85
2017-03-19T07:00:35.386Z,55.04
2017-03-19T07:01:46.442Z,57.04
2017-03-19T07:02:57.466Z,56.75
2017-03-19T07:04:08.501Z,64.47
2017-03-19T07:05:19.726Z,53.89
2017-03-19T07:06:30.979Z,54.75
2017-03-19T07:07:42.090Z,55.13
2017-03-19T07:08:53.127Z,59.45
2017-03-19T07:10:04.167Z,55.13
2017-03-19T07:11:15.197Z,57.04
2017-03-19T07:12:26.248Z,60.66
2017-03-19T07:13:37.271Z,53.52
2017-03-19T07:14:48.300Z,58.5
2017-03-19T07:15:59.331Z,59.32
2017-03-19T07:17:10.354Z,63.6
2017-03-19T07:18:21.458Z,60.94
2017-03-19T07:19:32.491Z,61.9
2017-03-19T07:20:43.744Z,54.02
2017-03-19T07:21:54.777Z,54.49
2017-03-19T07:23:06.010Z,60.69
2017-03-19T07:24:17.037Z,54.39
2017-03-19T07:25:28.079Z,60.49
2017-03-19T07:26:39.104Z,58.87
2017-03-19T07:27:50.141Z,62.02
2017-03-19T07:29:01.882Z,58.3
2017-03-19T07:30:12.918Z,62.59
2017-03-19T07:31:23.945Z,58.3
2017-03-19T07:32:34.979Z,59.64
2017-03-19T07:33:46.018Z,57.64
2017-03-19T07:34:57.249Z,58.11
2017-03-19T07:36:08.275Z,57.64
2017-03-19T07:37:19.305Z,60.4
2017-03-19T07:38:30.346Z,53.54
2017-03-19T07:39:41.425Z,57.26
2017-03-19T07:40:52.450Z,57.54
2017-03-19T07:42:03.474Z,60.3
2017-03-19T07:43:14.749Z,54.59
2017-03-19T07:44:25.798Z,59.06
2017-03-19T07:45:36.832Z,52.87
2017-03-19T07:46:48.097Z,52.97
2017-03-19T07:47:59.129Z,51.82
2017-03-19T07:49:10.367Z,56.87
2017-03-19T07:50:21.401Z,53.73
2017-03-19T07:51:32.433Z,60.02
2017-03-19T07:52:43.471Z,58.21
2017-03-19T07:53:54.499Z,51.54
2017-03-19T07:55:05.528Z,61.54
2017-03-19T07:56:16.811Z,53.73
2017-03-19T07:57:28.244Z,54.3
2017-03-19T07:58:39.484Z,52.01
2017-03-19T07:59:50.733Z,53.73
2017-03-19T08:01:01.771Z,56.21
2017-03-19T08:02:12.797Z,57.45
2017-03-19T08:03:23.863Z,49.16
2017-03-19T08:04:34.893Z,54.78
2017-03-19T08:05:46.123Z,54.02
2017-03-19T08:06:57.206Z,55.83
2017-03-19T08:08:08.239Z,58.4
2017-03-19T08:09:19.271Z,50.59
2017-03-19T08:10:30.285Z,53.92
2017-03-19T08:11:41.310Z,54.97
2017-03-19T08:12:52.332Z,54.3
2017-03-19T08:14:03.362Z,58.3
2017-03-19T08:15:14.400Z,59.83
2017-03-19T08:16:25.427Z,60.69
2017-03-19T08:17:36.505Z,52.59
2017-03-19T08:18:47.938Z,50.4
2017-03-19T08:19:58.971Z,56.24
2017-03-19T08:21:10.010Z,56.68
2017-03-19T08:22:21.035Z,55.54
2017-03-19T08:23:32.065Z,55.54
2017-03-19T08:24:43.292Z,55.83
2017-03-19T08:25:54.538Z,55.83
2017-03-19T08:27:05.597Z,59.35
2017-03-19T08:28:16.833Z,58.78
2017-03-19T08:29:27.932Z,60.88
2017-03-19T08:30:38.967Z,57.92
2017-03-19T08:31:50.188Z,56.59
2017-03-19T08:33:01.229Z,51.25
2017-03-19T08:34:12.268Z,53.44
2017-03-19T08:35:23.298Z,53.83
2017-03-19T08:36:34.529Z,54.21
2017-03-19T08:37:45.759Z,57.35
2017-03-19T08:38:56.838Z,53.06
2017-03-19T08:40:07.865Z,54.78
2017-03-19T08:41:18.922Z,51.54
2017-03-19T08:42:29.955Z,54.52
2017-03-19T08:43:41.003Z,51.73
2017-03-19T08:44:52.247Z,52.42
2017-03-19T08:46:03.272Z,52.42
2017-03-19T08:47:14.301Z,50.99
2017-03-19T08:48:25.343Z,53.83
2017-03-19T08:49:36.422Z,55.44
2017-03-19T08:50:47.491Z,51.54
2017-03-19T08:51:58.713Z,55.19
2017-03-19T08:53:09.948Z,56.14
2017-03-19T08:54:20.973Z,60.52
2017-03-19T08:55:32.007Z,57.35
2017-03-19T08:56:43.232Z,56.87
2017-03-19T08:57:54.458Z,57.57
2017-03-19T08:59:05.491Z,61.73
2017-03-19T09:00:16.519Z,60.81
2017-03-19T09:01:27.551Z,51.56
2017-03-19T09:02:38.588Z,54.43
2017-03-19T09:03:49.620Z,55.09
2017-03-19T09:05:00.660Z,59
2017-03-19T09:06:11.738Z,61.57
2017-03-19T09:07:22.760Z,57.57
2017-03-19T09:08:33.785Z,56.14
2017-03-19T09:09:44.828Z,54.24
2017-03-19T09:10:55.862Z,56.43
2017-03-19T09:12:07.094Z,59.38
2017-03-19T09:13:18.314Z,59.38
2017-03-19T09:14:29.338Z,63.57
2017-03-19T09:15:40.372Z,56.71
2017-03-19T09:16:51.448Z,55.28
2017-03-19T09:18:02.475Z,57.76
2017-03-19T09:19:13.709Z,59.86
2017-03-19T09:20:24.747Z,55.95
2017-03-19T09:21:35.976Z,62.43
2017-03-19T09:22:47.002Z,57.48
2017-03-19T09:23:58.037Z,59.38
2017-03-19T09:25:09.067Z,61.67
2017-03-19T09:26:20.158Z,57.67
2017-03-19T09:27:31.192Z,56.43
2017-03-19T09:28:42.226Z,61.67
2017-03-19T09:29:53.258Z,59.76
2017-03-19T09:31:04.298Z,59.95
2017-03-19T09:32:15.323Z,57.95
2017-03-19T09:33:26.555Z,57.86
2017-03-19T09:34:37.599Z,61
2017-03-19T09:35:48.633Z,58.52
2017-03-19T09:36:59.712Z,59.38
2017-03-19T09:38:10.945Z,60.62
2017-03-19T09:39:21.984Z,61.96
2017-03-19T09:40:33.021Z,62.05
2017-03-19T09:41:44.251Z,61.67
2017-03-19T09:42:55.293Z,56.52
2017-03-19T09:44:06.328Z,60.52
2017-03-19T09:45:17.358Z,60.72
2017-03-19T09:46:28.389Z,61.38
2017-03-19T09:47:39.475Z,60.91
2017-03-19T09:48:50.511Z,58.81
2017-03-19T09:50:01.746Z,60.43
2017-03-19T09:51:12.971Z,57.95
2017-03-19T09:52:24.206Z,63.57
2017-03-19T09:53:35.244Z,60.24
2017-03-19T09:54:46.284Z,60.24
2017-03-19T09:55:57.313Z,63.76
2017-03-19T09:57:08.342Z,60.33
2017-03-19T09:58:19.371Z,64.15
2017-03-19T09:59:30.401Z,58.62
2017-03-19T10:00:41.437Z,62.91
2017-03-19T10:01:52.465Z,59.28
2017-03-19T10:03:03.726Z,65.1
2017-03-19T10:04:14.966Z,61.86
2017-03-19T10:05:26.055Z,61.96
2017-03-19T10:06:37.310Z,65.29
2017-03-19T10:07:48.339Z,59.95
2017-03-19T10:08:59.374Z,61.29
2017-03-19T10:10:10.400Z,61.96
2017-03-19T10:11:21.436Z,60.24
2017-03-19T10:12:32.464Z,64.34
2017-03-19T10:13:43.503Z,65.67
2017-03-19T10:14:54.795Z,67.77
2017-03-19T10:16:06.038Z,63.48
2017-03-19T10:17:17.309Z,67.48
2017-03-19T10:18:28.346Z,62.05
2017-03-19T10:19:39.381Z,64.91
2017-03-19T10:20:50.420Z,68.72
2017-03-19T10:22:01.446Z,61.86
2017-03-19T10:23:12.475Z,65.8
2017-03-19T10:24:23.505Z,60.65
2017-03-19T10:25:34.789Z,66.56
2017-03-19T10:26:45.814Z,64.47
2017-03-19T10:27:56.872Z,65.13
2017-03-19T10:29:07.905Z,66.75
2017-03-19T10:30:18.952Z,65.52
2017-03-19T10:31:30.203Z,70.47
2017-03-19T10:32:41.236Z,69.9
2017-03-19T10:33:52.279Z,59.03
2017-03-19T10:35:03.307Z,65.13
2017-03-19T10:36:14.393Z,69.96
2017-03-19T10:37:25.633Z,68.63
2017-03-19T10:38:36.669Z,64.24
2017-03-19T10:39:47.695Z,68.34
2017-03-19T10:40:58.725Z,68.66
2017-03-19T10:42:09.952Z,66.75
2017-03-19T10:43:21.186Z,65.42
2017-03-19T10:44:32.233Z,70.34
2017-03-19T10:45:43.304Z,70.57
2017-03-19T10:46:54.541Z,67
2017-03-19T10:48:05.630Z,67.04
2017-03-19T10:49:16.682Z,66.53
2017-03-19T10:50:27.918Z,67.33
2017-03-19T10:51:39.165Z,66.47
2017-03-19T10:52:50.395Z,66.47
2017-03-19T10:54:01.425Z,65.39
2017-03-19T10:55:12.459Z,68.95
2017-03-19T10:56:23.486Z,71.77
2017-03-19T10:57:34.840Z,64.91
2017-03-19T10:58:45.879Z,68.85
2017-03-19T10:59:57.124Z,66.85
2017-03-19T11:01:08.153Z,67.39
2017-03-19T11:02:19.183Z,70.67
2017-03-19T11:03:30.422Z,70.67
2017-03-19T11:04:41.664Z,70.57
2017-03-19T11:05:52.899Z,70.47
2017-03-19T11:07:03.932Z,70
2017-03-19T11:08:15.009Z,70.57
2017-03-19T11:09:26.045Z,66.75
2017-03-19T11:10:37.073Z,72.28
2017-03-19T11:11:48.105Z,68.38
2017-03-19T11:12:59.365Z,68.47
2017-03-19T11:14:10.409Z,69.81
2017-03-19T11:15:21.645Z,68.76
2017-03-19T11:16:32.871Z,70
2017-03-19T11:17:43.944Z,72.67
2017-03-19T11:18:55.030Z,67.14
2017-03-19T11:20:06.265Z,73.33
2017-03-19T11:21:17.295Z,67.8
2017-03-19T11:22:28.524Z,71.04
2017-03-19T11:23:39.571Z,74.1
2017-03-19T11:24:50.899Z,72.19
2017-03-19T11:26:02.175Z,74.1
2017-03-19T11:27:13.408Z,67.52
2017-03-19T11:28:24.448Z,68.57
2017-03-19T11:29:35.480Z,69.71
2017-03-19T11:30:46.511Z,74.48
2017-03-19T11:31:57.736Z,77.53
2017-03-19T11:33:08.964Z,73.24
2017-03-19T11:34:20.014Z,73.05
2017-03-19T11:35:31.247Z,72.96
2017-03-19T11:36:42.269Z,77
2017-03-19T11:37:53.307Z,73.91
2017-03-19T11:39:04.345Z,79.15
2017-03-19T11:40:15.830Z,77.19
2017-03-19T11:41:26.859Z,78.72
2017-03-19T11:42:37.894Z,75.28
2017-03-19T11:43:49.133Z,80.43
2017-03-19T11:45:00.379Z,79.77
2017-03-19T11:46:11.407Z,79
2017-03-19T11:47:22.437Z,80.15
2017-03-19T11:48:33.471Z,83.58
2017-03-19T11:49:44.514Z,80.33
2017-03-19T11:50:55.598Z,78.33
2017-03-19T11:52:06.633Z,78.05
2017-03-19T11:53:17.863Z,83.77
2017-03-19T11:54:28.908Z,83.01
2017-03-19T11:55:39.944Z,82.43
2017-03-19T11:56:50.963Z,80.24
2017-03-19T11:58:02.035Z,80.53
2017-03-19T11:59:13.065Z,83.2
2017-03-19T12:00:24.121Z,82.06
2017-03-19T12:01:35.654Z,85.21
2017-03-19T12:02:46.684Z,83.48
2017-03-19T12:03:57.921Z,83.39
2017-03-19T12:05:09.147Z,80.72
2017-03-19T12:06:20.381Z,82.15
2017-03-19T12:07:31.498Z,81.38
2017-03-19T12:08:42.547Z,81.1
2017-03-19T12:09:53.794Z,83.77
2017-03-19T12:11:04.835Z,84.82
2017-03-19T12:12:15.867Z,85.3
2017-03-19T12:13:26.897Z,84.34
2017-03-19T12:14:37.930Z,83.01
2017-03-19T12:15:48.966Z,81.38
2017-03-19T12:17:00.003Z,82.06
2017-03-19T12:18:11.247Z,82.91
2017-03-19T12:19:22.531Z,83.29
2017-03-19T12:20:33.567Z,83.48
2017-03-19T12:21:44.594Z,83.87
2017-03-19T12:22:55.829Z,83.01
2017-03-19T12:24:06.871Z,78.81
2017-03-19T12:25:17.901Z,82.72
2017-03-19T12:26:28.921Z,82.24
2017-03-19T12:27:40.167Z,82.34
2017-03-19T12:28:51.654Z,83.29
2017-03-19T12:30:02.683Z,83.87
2017-03-19T12:31:13.714Z,81.38
2017-03-19T12:32:25.152Z,79.57
2017-03-19T12:33:36.386Z,82.72
2017-03-19T12:34:47.421Z,83.01
2017-03-19T12:35:58.458Z,79.77
2017-03-19T12:37:09.487Z,76.42
2017-03-19T12:38:20.547Z,78.72
2017-03-19T12:39:31.848Z,81.58
2017-03-19T12:40:42.877Z,81.86
2017-03-19T12:41:53.901Z,80.62
2017-03-19T12:43:04.936Z,78.33
2017-03-19T12:44:15.966Z,80.11
2017-03-19T12:45:27.030Z,81.1
2017-03-19T12:46:38.058Z,80.33
2017-03-19T12:47:49.092Z,79.44
2017-03-19T12:49:00.124Z,79.35
2017-03-19T12:50:11.209Z,73.43
2017-03-19T12:51:22.230Z,74.38
2017-03-19T12:52:33.253Z,77.82
2017-03-19T12:53:44.289Z,78.49
2017-03-19T12:54:55.332Z,74.57
2017-03-19T12:56:06.566Z,77.25
2017-03-19T12:57:17.595Z,78.58
2017-03-19T12:58:28.633Z,73.91
2017-03-19T12:59:39.667Z,75.72
2017-03-19T13:00:50.896Z,73.43
2017-03-19T13:02:01.925Z,74.01
2017-03-19T13:03:12.961Z,72.19
2017-03-19T13:04:23.997Z,77.44
2017-03-19T13:05:35.027Z,77.53
2017-03-19T13:06:46.062Z,78.67
2017-03-19T13:07:57.400Z,74.48
2017-03-19T13:09:08.453Z,77.44
2017-03-19T13:10:19.484Z,78.3
2017-03-19T13:11:30.505Z,77.25
2017-03-19T13:12:41.547Z,78.1
2017-03-19T13:13:52.823Z,79.15
2017-03-19T13:15:04.266Z,80.77
2017-03-19T13:16:15.293Z,77.25
2017-03-19T13:17:26.771Z,79.44
2017-03-19T13:18:37.999Z,77.15
2017-03-19T13:19:49.032Z,80.77
2017-03-19T13:21:00.057Z,81.25
2017-03-19T13:22:11.094Z,80.01
2017-03-19T13:23:22.130Z,80.15
2017-03-19T13:24:33.369Z,85.77
2017-03-19T13:25:44.595Z,86.3
2017-03-19T13:26:55.624Z,92.12
2017-03-19T13:28:07.144Z,87.73
2017-03-19T13:29:18.376Z,91.07
2017-03-19T13:30:29.413Z,92.12
2017-03-19T13:31:40.438Z,92.88
2017-03-19T13:32:51.473Z,93.55
2017-03-19T13:34:02.521Z,94.03
2017-03-19T13:35:13.563Z,92.79
2017-03-19T13:36:24.601Z,91.64
2017-03-19T13:37:35.832Z,92.79
2017-03-19T13:38:47.128Z,92.88
2017-03-19T13:39:58.182Z,93.84
2017-03-19T13:41:09.219Z,93.93
2017-03-19T13:42:20.453Z,94.6
2017-03-19T13:43:31.478Z,93.17
2017-03-19T13:44:42.728Z,94.31
2017-03-19T13:45:53.764Z,93.84
2017-03-19T13:47:04.998Z,93.93
2017-03-19T13:48:16.030Z,93.51
2017-03-19T13:49:27.063Z,93.6
2017-03-19T13:50:38.185Z,94.27
2017-03-19T13:51:49.215Z,92.79
2017-03-19T13:53:00.448Z,91.93
2017-03-19T13:54:11.482Z,91.93
2017-03-19T13:55:22.762Z,93.36
2017-03-19T13:56:33.992Z,93.65
2017-03-19T13:57:45.020Z,95.08
2017-03-19T13:58:56.076Z,94.03
2017-03-19T14:00:07.116Z,94.79
2017-03-19T14:01:18.144Z,94.03
2017-03-19T14:02:29.381Z,94.31
2017-03-19T14:03:40.420Z,94.89
2017-03-19T14:04:51.455Z,93.51
2017-03-19T14:06:02.745Z,92.74
2017-03-19T14:07:13.773Z,93.98
2017-03-19T14:08:24.800Z,92.83
2017-03-19T14:09:35.839Z,92.74
2017-03-19T14:10:46.867Z,91.6
2017-03-19T14:11:57.901Z,95.12
2017-03-19T14:13:08.938Z,94.07
2017-03-19T14:14:19.966Z,94.93
2017-03-19T14:15:30.994Z,94.65
2017-03-19T14:16:42.273Z,94.74
2017-03-19T14:17:53.314Z,99.32
2017-03-19T14:19:04.346Z,99.99
2017-03-19T14:20:15.369Z,99.99
2017-03-19T14:21:26.396Z,99.99
2017-03-19T14:22:37.427Z,99.99
2017-03-19T14:23:48.501Z,99.99
2017-03-19T14:24:59.741Z,99.99
2017-03-19T14:26:10.775Z,99.99
2017-03-19T14:27:22.053Z,99.99
2017-03-19T14:28:33.302Z,99.99
2017-03-19T14:29:44.330Z,99.99
2017-03-19T14:30:55.568Z,99.99
2017-03-19T14:32:06.594Z,99.99
2017-03-19T14:33:18.034Z,99.99
2017-03-19T14:34:29.284Z,99.99
2017-03-19T14:35:40.311Z,99.99
2017-03-19T14:36:51.528Z,99.99
2017-03-19T14:38:02.763Z,99.99
2017-03-19T14:39:14.048Z,99.99
2017-03-19T14:40:25.097Z,99.99
2017-03-19T14:41:36.120Z,99.99
2017-03-19T14:42:47.155Z,99.99
2017-03-19T14:43:58.236Z,99.99
2017-03-19T14:45:09.313Z,99.99
2017-03-19T14:46:20.363Z,99.99
2017-03-19T14:47:31.598Z,99.99
2017-03-19T14:48:42.681Z,99.99
2017-03-19T14:49:53.716Z,99.99
2017-03-19T14:51:04.949Z,99.99
2017-03-19T14:52:15.975Z,99.99
2017-03-19T14:53:27.017Z,99.99
2017-03-19T14:54:38.053Z,99.99
2017-03-19T14:55:49.081Z,99.99
2017-03-19T14:57:00.326Z,99.99
2017-03-19T14:58:11.366Z,99.99
2017-03-19T14:59:22.461Z,99.99
2017-03-19T15:00:33.500Z,99.99
2017-03-19T15:01:44.523Z,99.99
2017-03-19T15:02:55.797Z,99.99
2017-03-19T15:04:06.835Z,99.99
2017-03-19T15:05:17.862Z,99.99
2017-03-19T15:06:28.894Z,99.99
2017-03-19T15:07:40.118Z,99.99
2017-03-19T15:08:51.358Z,99.99
2017-03-19T15:10:02.641Z,99.99
2017-03-19T15:11:13.671Z,99.99
2017-03-19T15:12:24.700Z,99.99
2017-03-19T15:13:35.739Z,99.99
2017-03-19T15:14:46.971Z,99.99
2017-03-19T15:15:58.054Z,99.99
2017-03-19T15:17:09.276Z,99.99
2017-03-19T15:18:20.320Z,99.99
2017-03-19T15:19:31.551Z,99.99